createdAt,value
2023-04-12T00:03:33.533Z,306.35294
2023-04-12T00:08:34.878Z,312.86228
2023-04-12T00:13:36.151Z,308.49704
2023-04-12T00:18:37.577Z,304.23392
2023-04-12T00:23:39.074Z,296
2023-04-12T00:28:40.415Z,278.78261
2023-04-12T00:33:42.115Z,284.33149
2023-04-12T00:38:43.392Z,273.41176
2023-04-12T00:43:45.280Z,271.65957
2023-04-12T00:48:46.998Z,247.44828
2023-04-12T00:53:48.589Z,248.9505
2023-04-12T00:58:50.195Z,252
2023-04-12T01:03:52.090Z,252
2023-04-12T01:08:53.621Z,258.28571
2023-04-12T01:13:55.291Z,264.83333
2023-04-12T01:18:57.140Z,261.52577
2023-04-12T01:23:59.086Z,263.17098
2023-04-12T01:29:00.663Z,275.1828
2023-04-12T01:34:02.033Z,284.33149
2023-04-12T01:39:03.804Z,304.23392
2023-04-12T01:44:05.291Z,302.13953
2023-04-12T01:49:06.922Z,306.35294
2023-04-12T01:54:08.225Z,296
2023-04-12T01:59:09.841Z,300.06936
2023-04-12T02:04:11.927Z,304.23392
2023-04-12T02:09:13.705Z,302.13953
2023-04-12T02:14:15.307Z,298.02299
2023-04-12T02:19:17.028Z,300.06936
2023-04-12T02:24:18.638Z,296
2023-04-12T02:29:20.422Z,290.06742
2023-04-12T02:34:21.953Z,296
2023-04-12T02:39:23.233Z,294
2023-04-12T02:44:24.519Z,292.0226
2023-04-12T02:49:25.927Z,302.13953
2023-04-12T02:54:27.721Z,304.23392
2023-04-12T02:59:29.399Z,306.35294
2023-04-12T03:04:31.820Z,317.33333
2023-04-12T03:09:33.390Z,321.91411
2023-04-12T03:14:34.818Z,321.91411
2023-04-12T03:19:36.456Z,329
2023-04-12T03:24:37.757Z,331.42138
2023-04-12T03:29:39.051Z,331.42138
2023-04-12T03:34:40.703Z,331.42138
2023-04-12T03:39:42.419Z,331.42138
2023-04-12T03:44:44.105Z,329
2023-04-12T03:54:47.647Z,298.02299
2023-04-12T03:59:49.223Z,296
2023-04-12T04:04:51.282Z,288.13408
2023-04-12T04:09:52.945Z,280.61202
2023-04-12T04:14:54.769Z,290.06742
2023-04-12T04:19:56.463Z,292.0226
2023-04-12T04:24:57.997Z,296
2023-04-12T04:29:59.293Z,292.0226
2023-04-12T04:35:00.893Z,284.33149
2023-04-12T04:40:02.532Z,278.78261
2023-04-12T04:45:04.102Z,273.41176
2023-04-12T04:50:05.823Z,268.21053
2023-04-12T04:55:09.132Z,275.1828
2023-04-12T05:00:11.923Z,280.61202
2023-04-12T05:05:13.334Z,286.22222
2023-04-12T05:10:14.616Z,298.02299
2023-04-12T05:15:15.893Z,304.23392
2023-04-12T05:20:17.245Z,300.06936
2023-04-12T05:25:18.720Z,302.13953
2023-04-12T05:30:19.979Z,310.66667
2023-04-12T05:35:21.637Z,319.60976
2023-04-12T05:40:23.034Z,326.6087
2023-04-12T05:45:24.310Z,321.91411
2023-04-12T05:50:25.760Z,329
2023-04-12T05:55:27.103Z,331.42138
2023-04-12T06:00:28.456Z,338.87179
2023-04-12T06:05:30.146Z,338.87179
2023-04-12T06:10:31.715Z,357.42282
2023-04-12T06:15:33.034Z,346.61438
2023-04-12T06:20:34.316Z,341.41935
2023-04-12T06:25:35.614Z,351.94702
2023-04-12T06:30:37.091Z,349.26316
2023-04-12T06:35:38.855Z,346.61438
2023-04-12T06:40:40.573Z,346.61438
2023-04-12T06:45:41.932Z,341.41935
2023-04-12T06:50:43.590Z,354.66667
2023-04-12T06:55:45.379Z,357.42282
2023-04-12T07:00:46.950Z,396.94118
2023-04-12T07:05:48.691Z,396.94118
2023-04-12T07:10:50.655Z,390.37681
2023-04-12T07:15:52.320Z,410.66667
2023-04-12T07:20:54.373Z,414.22901
2023-04-12T07:25:56.042Z,417.84615
2023-04-12T07:30:57.697Z,440.77419
2023-04-12T07:36:00.668Z,440.77419
2023-04-12T07:41:02.294Z,444.81301
2023-04-12T07:46:04.442Z,436.8
2023-04-12T07:51:06.293Z,461.64706
2023-04-12T07:56:08.006Z,444.81301
2023-04-12T08:01:09.859Z,444.81301
2023-04-12T08:06:11.685Z,461.64706
2023-04-12T08:11:13.498Z,448.91803
2023-04-12T08:16:15.273Z,453.09091
2023-04-12T08:21:17.230Z,498.95495
2023-04-12T08:26:18.878Z,525.13208
2023-04-12T08:31:20.757Z,560
2023-04-12T08:36:23.919Z,553.90099
2023-04-12T08:41:25.295Z,514.37037
2023-04-12T08:46:26.758Z,542.05825
2023-04-12T08:51:28.222Z,599.31915
2023-04-12T08:56:29.562Z,592.42105
2023-04-12T09:01:31.395Z,0
2023-04-12T09:06:32.815Z,620.92308
2023-04-12T09:11:34.505Z,0
2023-04-12T09:16:36.370Z,553.90099
2023-04-12T09:21:38.033Z,0
2023-04-12T09:26:39.760Z,0
2023-04-12T09:31:41.513Z,0
2023-04-12T09:36:43.485Z,0
2023-04-12T09:41:45.158Z,0
2023-04-12T09:46:48.176Z,0
2023-04-12T09:51:49.925Z,0
2023-04-12T09:56:51.153Z,0
2023-04-12T10:01:52.446Z,0
2023-04-12T10:06:54.316Z,0
2023-04-12T10:11:55.661Z,0
2023-04-12T10:16:56.903Z,0
2023-04-12T10:21:58.204Z,0
2023-04-12T10:26:59.866Z,0
2023-04-12T10:32:01.451Z,0
2023-04-12T10:37:03.044Z,0
2023-04-12T10:42:04.717Z,0
2023-04-12T10:47:06.428Z,0
2023-04-12T10:52:08.157Z,0
2023-04-12T10:57:09.850Z,0
2023-04-12T11:02:11.879Z,0
2023-04-12T11:07:13.645Z,0
2023-04-12T11:12:15.117Z,0
2023-04-12T11:17:17.311Z,0
2023-04-12T11:22:19.231Z,0
2023-04-12T11:27:21.301Z,0
2023-04-12T11:32:23.072Z,0
2023-04-12T11:37:25.400Z,0
2023-04-12T11:42:27.190Z,0
2023-04-12T11:47:28.535Z,0
2023-04-12T11:52:29.966Z,652.04598
2023-04-12T11:57:31.317Z,0
2023-04-12T12:02:36.606Z,0
2023-04-12T12:07:45.023Z,0
2023-04-12T12:12:46.408Z,0
2023-04-12T12:17:47.717Z,0
2023-04-12T12:22:49.412Z,0
2023-04-12T12:27:51.079Z,0
2023-04-12T12:32:52.577Z,0
2023-04-12T12:37:54.444Z,0
2023-04-12T12:42:56.269Z,0
2023-04-12T12:47:57.807Z,0
2023-04-12T12:52:59.545Z,0
2023-04-12T12:58:07.856Z,0
2023-04-12T13:03:10.144Z,0
2023-04-12T13:08:12.001Z,0
2023-04-12T13:13:13.808Z,0
2023-04-12T13:18:15.418Z,0
2023-04-12T13:23:16.997Z,0
2023-04-12T13:28:18.702Z,0
2023-04-12T13:33:21.893Z,0
2023-04-12T13:38:24.921Z,0
2023-04-12T13:43:26.239Z,0
2023-04-12T13:48:27.621Z,0
2023-04-12T13:53:29.373Z,0
2023-04-12T13:58:30.634Z,0
2023-04-12T14:03:32.446Z,0
2023-04-12T14:08:33.993Z,0
2023-04-12T14:13:35.751Z,0
2023-04-12T14:18:37.068Z,0
2023-04-12T14:23:38.465Z,0
2023-04-12T14:28:39.860Z,0
2023-04-12T14:33:41.108Z,0
2023-04-12T14:38:42.847Z,0
2023-04-12T14:43:44.579Z,0
2023-04-12T14:48:46.367Z,0
2023-04-12T14:53:49.173Z,0
2023-04-12T14:58:51.340Z,0
2023-04-12T15:03:53.474Z,0
2023-04-12T15:08:55.556Z,0
2023-04-12T15:13:57.465Z,0
2023-04-12T15:19:03.171Z,0
2023-04-12T15:24:08.322Z,0
2023-04-12T15:29:09.894Z,0
2023-04-12T15:34:11.535Z,0
2023-04-12T15:39:13.250Z,0
2023-04-12T15:44:15.105Z,0
2023-04-12T15:49:17.106Z,0
2023-04-12T15:54:18.718Z,0
2023-04-12T15:59:20.038Z,0
2023-04-12T16:04:22.402Z,0
2023-04-12T16:09:24.610Z,0
2023-04-12T16:14:26.104Z,457.33333
2023-04-12T16:19:27.557Z,453.09091
2023-04-12T16:24:29.038Z,457.33333
2023-04-12T16:29:30.916Z,436.8
2023-04-12T16:34:32.216Z,448.91803
2023-04-12T16:39:33.953Z,444.81301
2023-04-12T16:44:35.422Z,453.09091
2023-04-12T16:49:36.795Z,448.91803
2023-04-12T16:54:38.197Z,444.81301
2023-04-12T16:59:39.518Z,436.8
2023-04-12T17:04:41.419Z,440.77419
2023-04-12T17:09:43.192Z,448.91803
2023-04-12T17:14:44.969Z,440.77419
2023-04-12T17:19:46.706Z,466.0339
2023-04-12T17:24:48.576Z,466.0339
2023-04-12T17:29:50.024Z,448.91803
2023-04-12T17:34:51.494Z,448.91803
2023-04-12T17:39:53.066Z,440.77419
2023-04-12T17:44:54.851Z,436.8
2023-04-12T17:49:56.176Z,453.09091
2023-04-12T17:54:57.825Z,444.81301
2023-04-12T17:59:59.121Z,448.91803
2023-04-12T18:05:00.760Z,448.91803
2023-04-12T18:10:02.497Z,444.81301
2023-04-12T18:15:04.382Z,432.88889
2023-04-12T18:20:06.001Z,436.8
2023-04-12T18:25:08.171Z,421.51938
2023-04-12T18:30:09.799Z,421.51938
2023-04-12T18:35:11.440Z,429.03937
2023-04-12T18:40:13.474Z,432.88889
2023-04-12T18:45:15.089Z,429.03937
2023-04-12T18:50:16.419Z,425.25
2023-04-12T18:55:18.372Z,453.09091
2023-04-12T19:00:19.642Z,466.0339
2023-04-12T19:05:21.252Z,448.91803
2023-04-12T19:10:23.236Z,457.33333
2023-04-12T19:15:24.782Z,453.09091
2023-04-12T19:20:26.428Z,461.64706
2023-04-12T19:25:27.791Z,448.91803
2023-04-12T19:30:29.346Z,440.77419
2023-04-12T19:35:30.733Z,432.88889
2023-04-12T19:40:32.131Z,440.77419
2023-04-12T19:45:33.490Z,444.81301
2023-04-12T19:50:34.801Z,436.8
2023-04-12T19:55:36.342Z,436.8
2023-04-12T20:00:37.590Z,429.03937
2023-04-12T20:05:38.920Z,429.03937
2023-04-12T20:10:40.303Z,417.84615
2023-04-12T20:15:41.985Z,425.25
2023-04-12T20:20:43.204Z,410.66667
2023-04-12T20:25:45.029Z,403.70149
2023-04-12T20:30:46.362Z,400.2963
2023-04-12T20:35:47.741Z,393.63504
2023-04-12T20:40:49.349Z,393.63504
2023-04-12T20:45:51.003Z,393.63504
2023-04-12T20:50:52.473Z,365.91781
2023-04-12T20:55:53.982Z,354.66667
2023-04-12T21:00:55.505Z,365.91781
2023-04-12T21:05:56.760Z,374.76923
2023-04-12T21:10:58.193Z,380.87943
2023-04-12T21:15:59.703Z,384
2023-04-12T21:21:01.157Z,380.87943
2023-04-12T21:26:03.041Z,384
2023-04-12T21:31:04.655Z,384
2023-04-12T21:36:06.243Z,380.87943
2023-04-12T21:41:08.166Z,380.87943
2023-04-12T21:46:09.886Z,380.87943
2023-04-12T21:51:11.550Z,377.80282
2023-04-12T21:56:13.273Z,371.77778
2023-04-12T22:01:14.784Z,371.77778
2023-04-12T22:06:16.122Z,371.77778
2023-04-12T22:11:17.581Z,371.77778
2023-04-12T22:16:19.147Z,371.77778
2023-04-12T22:21:20.921Z,371.77778
2023-04-12T22:26:22.397Z,371.77778
2023-04-12T22:31:23.684Z,374.76923
2023-04-12T22:36:26.003Z,374.76923
2023-04-12T22:41:29.538Z,374.76923
2023-04-12T22:46:31.107Z,368.82759
2023-04-12T22:51:32.780Z,368.82759
2023-04-12T22:56:34.408Z,368.82759
2023-04-12T23:01:35.821Z,363.04762
2023-04-12T23:06:37.189Z,368.82759
2023-04-12T23:11:38.664Z,365.91781
2023-04-12T23:16:39.957Z,365.91781
2023-04-12T23:21:41.322Z,380.87943
2023-04-12T23:26:42.777Z,365.91781
2023-04-12T23:31:44.166Z,377.80282
2023-04-12T23:36:45.644Z,368.82759
2023-04-12T23:41:46.998Z,368.82759
2023-04-12T23:46:48.371Z,365.91781
2023-04-12T23:51:49.650Z,368.82759
2023-04-12T23:56:50.951Z,365.91781
